Terminal Aerodrome Forecast
Issued by NWS

Home | Current Version | Previous Version | Graphics & Text | Print | Product List | Glossary On
Versions: 1 2 3 4 5 6 7 8 9 10 11 12 13 14 15 16 17
000
FTUS43 KGRB 281134
TAFRHI
TAF
KRHI 281134Z 2812/2912 06004KT P6SM VCSH SCT005 OVC012
      TEMPO 2812/2816 4SM -RADZ BR BKN005
     FM281600 05004KT 5SM -DZ BR VCSH BKN016
     FM282100 05004KT P6SM SCT020 BKN035
     FM290100 VRB02KT P6SM SCT035 BKN100
     FM290500 00000KT 4SM BR SCT100=

USA.gov is the U.S. government's official web portal to all federal, state and local government web resources and services.